createdAt,value
2019-04-07T00:00:36.327Z,53.53
2019-04-07T00:03:07.076Z,53.73
2019-04-07T00:05:37.787Z,53.76
2019-04-07T00:08:08.843Z,53.79
2019-04-07T00:10:40.189Z,54.05
2019-04-07T00:13:11.040Z,54.00
2019-04-07T00:15:41.800Z,54.16
2019-04-07T00:18:12.647Z,54.25
2019-04-07T00:20:44.957Z,54.42
2019-04-07T00:23:16.257Z,54.39
2019-04-07T00:25:47.950Z,54.39
2019-04-07T00:28:19.590Z,54.61
2019-04-07T00:30:51.280Z,54.70
2019-04-07T00:33:22.067Z,54.96
2019-04-07T00:35:53.081Z,54.81
2019-04-07T00:38:23.971Z,54.87
2019-04-07T00:40:54.725Z,54.83
2019-04-07T00:43:25.469Z,55.09
2019-04-07T00:45:56.983Z,55.29
2019-04-07T00:48:28.680Z,55.15
2019-04-07T00:50:59.513Z,55.32
2019-04-07T00:53:30.944Z,55.29
2019-04-07T00:56:01.533Z,55.37
2019-04-07T00:58:32.327Z,55.25
2019-04-07T01:01:03.167Z,55.39
2019-04-07T01:03:34.859Z,55.51
2019-04-07T01:06:06.509Z,55.44
2019-04-07T01:08:37.452Z,55.48
2019-04-07T01:11:08.865Z,55.56
2019-04-07T01:13:40.104Z,55.47
2019-04-07T01:16:11.058Z,55.44
2019-04-07T01:18:42.541Z,55.49
2019-04-07T01:21:13.830Z,55.55
2019-04-07T01:23:44.894Z,55.46
2019-04-07T01:26:16.335Z,55.57
2019-04-07T01:28:48.711Z,55.57
2019-04-07T01:31:19.794Z,55.77
2019-04-07T01:33:50.797Z,55.91
2019-04-07T01:36:21.896Z,55.71
2019-04-07T01:38:53.290Z,55.91
2019-04-07T01:41:26.325Z,55.62
2019-04-07T01:44:17.962Z,55.85
2019-04-07T01:47:06.484Z,55.76
2019-04-07T01:49:47.992Z,56.04
2019-04-07T01:52:21.066Z,56.12
2019-04-07T01:54:53.972Z,56.04
2019-04-07T01:57:29.263Z,56.03
2019-04-07T02:00:04.572Z,55.89
2019-04-07T02:02:49.396Z,56.35
2019-04-07T02:05:38.560Z,56.23
2019-04-07T02:08:14.586Z,56.35
2019-04-07T02:11:03.492Z,56.43
2019-04-07T02:13:36.203Z,56.23
2019-04-07T02:16:15.661Z,56.42
2019-04-07T02:19:03.601Z,56.57
2019-04-07T02:21:45.015Z,56.51
2019-04-07T02:24:34.414Z,56.65
2019-04-07T02:27:13.186Z,56.56
2019-04-07T02:29:51.394Z,56.76
2019-04-07T02:32:24.535Z,56.85
2019-04-07T02:34:57.515Z,56.90
2019-04-07T02:37:35.810Z,57.07
2019-04-07T02:40:25.217Z,57.10
2019-04-07T02:43:06.464Z,57.19
2019-04-07T02:45:45.215Z,57.13
2019-04-07T02:48:24.237Z,57.16
2019-04-07T02:51:06.114Z,57.33
2019-04-07T02:53:41.157Z,57.38
2019-04-07T02:56:13.634Z,57.30
2019-04-07T02:58:46.300Z,57.58
2019-04-07T03:01:27.963Z,57.39
2019-04-07T03:04:12.020Z,57.67
2019-04-07T03:06:49.720Z,57.48
2019-04-07T03:09:18.782Z,57.67
2019-04-07T03:12:04.379Z,57.68
2019-04-07T03:14:53.427Z,58.21
2019-04-07T03:17:36.194Z,58.10
2019-04-07T03:20:09.986Z,58.46
2019-04-07T03:22:48.599Z,58.52
2019-04-07T03:25:23.987Z,58.26
2019-04-07T03:28:00.510Z,58.40
2019-04-07T03:30:54.168Z,58.43
2019-04-07T03:33:40.770Z,58.51
2019-04-07T03:36:16.106Z,58.62
2019-04-07T03:38:55.779Z,58.67
2019-04-07T03:41:31.585Z,58.75
2019-04-07T03:44:05.973Z,58.67
2019-04-07T03:46:38.924Z,58.84
2019-04-07T03:49:11.405Z,59.09
2019-04-07T03:52:00.388Z,59.15
2019-04-07T03:54:36.574Z,59.25
2019-04-07T03:57:13.116Z,59.33
2019-04-07T03:59:47.320Z,59.47
2019-04-07T04:02:29.341Z,59.69
2019-04-07T04:05:05.336Z,59.66
2019-04-07T04:07:38.758Z,59.85
2019-04-07T04:10:28.940Z,59.91
2019-04-07T04:13:01.486Z,59.85
2019-04-07T04:15:34.035Z,59.99
2019-04-07T04:18:05.448Z,60.11
2019-04-07T04:20:37.232Z,60.30
2019-04-07T04:23:08.970Z,60.26
2019-04-07T04:25:40.667Z,60.33
2019-04-07T04:28:14.406Z,60.52
2019-04-07T04:30:45.207Z,60.49
2019-04-07T04:33:16.033Z,60.77
2019-04-07T04:35:46.567Z,60.66
2019-04-07T04:38:17.802Z,60.55
2019-04-07T04:40:49.372Z,60.99
2019-04-07T04:43:20.437Z,61.06
2019-04-07T04:45:53.218Z,61.03
2019-04-07T04:48:23.803Z,60.76
2019-04-07T04:50:55.928Z,60.82
2019-04-07T04:53:26.857Z,60.98
2019-04-07T04:55:58.900Z,61.12
2019-04-07T04:58:30.297Z,61.18
2019-04-07T05:01:02.910Z,61.07
2019-04-07T05:03:33.941Z,61.15
2019-04-07T05:06:05.048Z,60.84
2019-04-07T05:08:36.004Z,61.03
2019-04-07T05:11:06.903Z,61.26
2019-04-07T05:13:37.398Z,61.01
2019-04-07T05:16:08.350Z,61.04
2019-04-07T05:18:39.169Z,60.86
2019-04-07T05:21:10.622Z,60.99
2019-04-07T05:23:41.563Z,60.83
2019-04-07T05:26:11.961Z,60.76
2019-04-07T05:28:42.716Z,60.63
2019-04-07T05:31:13.557Z,60.27
2019-04-07T05:33:44.924Z,60.63
2019-04-07T05:36:15.953Z,60.54
2019-04-07T05:38:46.745Z,60.60
2019-04-07T05:41:18.349Z,60.12
2019-04-07T05:43:49.320Z,59.90
2019-04-07T05:46:20.169Z,59.91
2019-04-07T05:48:52.610Z,59.63
2019-04-07T05:51:23.691Z,59.38
2019-04-07T05:53:54.740Z,59.46
2019-04-07T05:56:27.620Z,59.62
2019-04-07T05:58:58.173Z,59.49
2019-04-07T06:01:29.241Z,59.40
2019-04-07T06:04:00.075Z,59.51
2019-04-07T06:06:30.890Z,59.72
2019-04-07T06:09:03.032Z,59.50
2019-04-07T06:11:36.005Z,59.48
2019-04-07T06:14:07.325Z,59.40
2019-04-07T06:16:38.776Z,59.41
2019-04-07T06:19:09.772Z,59.42
2019-04-07T06:21:46.170Z,59.62
2019-04-07T06:24:16.099Z,59.33
2019-04-07T06:26:49.173Z,59.55
2019-04-07T06:29:19.912Z,59.55
2019-04-07T06:31:51.049Z,59.53
2019-04-07T06:34:22.584Z,59.79
2019-04-07T06:36:55.320Z,59.76
2019-04-07T06:39:25.644Z,59.74
2019-04-07T06:41:58.904Z,59.65
2019-04-07T06:44:29.044Z,59.57
2019-04-07T06:47:04.689Z,59.75
2019-04-07T06:49:37.113Z,59.53
2019-04-07T06:52:12.589Z,59.43
2019-04-07T06:54:56.159Z,59.49
2019-04-07T06:57:36.091Z,59.50
2019-04-07T07:00:20.590Z,59.31
2019-04-07T07:03:02.889Z,59.30
2019-04-07T07:05:44.245Z,59.09
2019-04-07T07:08:19.348Z,59.15
2019-04-07T07:11:07.844Z,59.34
2019-04-07T07:13:57.749Z,59.07
2019-04-07T07:16:33.417Z,58.76
2019-04-07T07:19:24.455Z,58.86
2019-04-07T07:22:15.990Z,59.01
2019-04-07T07:24:47.236Z,58.68
2019-04-07T07:27:18.557Z,58.85
2019-04-07T07:29:51.919Z,58.69
2019-04-07T07:32:22.687Z,58.53
2019-04-07T07:34:54.154Z,58.62
2019-04-07T07:37:26.164Z,58.65
2019-04-07T07:39:57.710Z,58.47
2019-04-07T07:42:28.929Z,58.50
2019-04-07T07:44:59.939Z,58.51
2019-04-07T07:47:31.358Z,58.63
2019-04-07T07:50:04.794Z,58.62
2019-04-07T07:52:35.138Z,58.34
2019-04-07T07:55:07.506Z,58.44
2019-04-07T07:57:38.461Z,58.57
2019-04-07T08:00:10.305Z,58.12
2019-04-07T08:02:41.139Z,57.95
2019-04-07T08:05:12.442Z,57.87
2019-04-07T08:07:46.788Z,57.54
2019-04-07T08:10:17.063Z,57.80
2019-04-07T08:12:49.701Z,57.55
2019-04-07T08:15:25.424Z,56.92
2019-04-07T08:17:53.476Z,56.81
2019-04-07T08:20:24.373Z,56.62
2019-04-07T08:22:56.093Z,56.48
2019-04-07T08:25:29.170Z,55.72
2019-04-07T08:28:26.375Z,55.74
2019-04-07T08:31:12.088Z,55.90
2019-04-07T08:36:45.388Z,55.53
2019-04-07T08:39:42.185Z,55.20
2019-04-07T08:43:19.670Z,55.38
2019-04-07T08:45:11.358Z,54.82
2019-04-07T08:47:40.237Z,54.86
2019-04-07T08:50:58.699Z,55.12
2019-04-07T08:53:26.846Z,55.04
2019-04-07T08:56:11.932Z,54.34
2019-04-07T08:58:52.129Z,54.12
2019-04-07T09:01:23.776Z,53.31
2019-04-07T09:03:54.907Z,52.84
2019-04-07T09:06:29.118Z,52.78
2019-04-07T09:09:04.010Z,52.76
2019-04-07T09:11:35.582Z,52.17
2019-04-07T09:14:07.988Z,52.23
2019-04-07T09:16:46.870Z,52.09
2019-04-07T09:19:18.188Z,52.12
2019-04-07T09:22:01.996Z,51.36
2019-04-07T09:24:34.604Z,51.70
2019-04-07T09:27:07.874Z,51.67
2019-04-07T09:29:43.205Z,51.53
2019-04-07T09:32:34.642Z,51.54
2019-04-07T09:35:25.826Z,50.79
2019-04-07T09:38:11.619Z,51.18
2019-04-07T09:40:46.268Z,50.88
2019-04-07T09:43:24.851Z,51.28
2019-04-07T09:46:13.709Z,50.06
2019-04-07T09:48:52.869Z,49.69
2019-04-07T09:51:37.666Z,49.24
2019-04-07T09:54:23.102Z,48.81
2019-04-07T09:57:06.948Z,47.87
2019-04-07T09:59:55.347Z,47.97
2019-04-07T10:02:31.882Z,47.69
2019-04-07T10:05:02.244Z,47.19
2019-04-07T10:07:44.041Z,47.69
2019-04-07T10:10:17.172Z,47.14
2019-04-07T10:13:08.070Z,47.01
2019-04-07T10:15:44.206Z,47.20
2019-04-07T10:18:34.144Z,46.73
2019-04-07T10:21:10.001Z,46.22
2019-04-07T10:23:51.880Z,46.22
2019-04-07T10:26:40.709Z,46.16
2019-04-07T10:29:21.920Z,46.31
2019-04-07T10:31:57.620Z,46.43
2019-04-07T10:34:33.131Z,46.22
2019-04-07T10:37:14.665Z,46.23
2019-04-07T10:39:48.307Z,45.76
2019-04-07T10:42:29.788Z,45.54
2019-04-07T10:45:07.269Z,45.88
2019-04-07T10:47:43.637Z,45.45
2019-04-07T10:50:31.472Z,45.14
2019-04-07T10:53:20.643Z,45.16
2019-04-07T10:56:02.326Z,45.44
2019-04-07T10:58:50.862Z,45.23
2019-04-07T11:01:36.246Z,44.67
2019-04-07T11:04:09.491Z,44.75
2019-04-07T11:06:46.146Z,45.29
2019-04-07T11:09:21.448Z,45.68
2019-04-07T11:11:56.730Z,45.36
2019-04-07T11:14:47.331Z,45.01
2019-04-07T11:17:20.465Z,43.98
2019-04-07T11:20:05.055Z,43.39
2019-04-07T11:22:56.307Z,43.16
2019-04-07T11:25:45.103Z,43.36
2019-04-07T11:28:17.834Z,44.27
2019-04-07T11:31:00.413Z,43.83
2019-04-07T11:33:36.197Z,43.38
2019-04-07T11:36:09.433Z,43.90
2019-04-07T11:38:58.517Z,43.90
2019-04-07T11:41:30.760Z,43.48
2019-04-07T11:44:03.385Z,42.14
2019-04-07T11:46:48.378Z,43.32
2019-04-07T11:49:32.707Z,42.79
2019-04-07T11:52:05.936Z,41.38
2019-04-07T11:54:38.566Z,41.09
2019-04-07T11:57:13.685Z,41.65
2019-04-07T12:00:02.351Z,42.23
2019-04-07T12:02:35.075Z,41.49
2019-04-07T12:05:12.731Z,40.18
2019-04-07T12:08:02.842Z,40.23
2019-04-07T12:10:54.646Z,40.26
2019-04-07T12:13:35.742Z,39.93
2019-04-07T12:16:10.872Z,41.31
2019-04-07T12:19:01.519Z,41.19
2019-04-07T12:21:42.669Z,41.29
2019-04-07T12:24:30.791Z,40.90
2019-04-07T12:27:06.772Z,40.01
2019-04-07T12:29:39.838Z,39.85
2019-04-07T12:32:12.647Z,39.36
2019-04-07T12:34:50.988Z,39.68
2019-04-07T12:37:28.449Z,38.16
2019-04-07T12:40:20.830Z,38.23
2019-04-07T12:42:52.143Z,38.97
2019-04-07T12:45:38.484Z,39.18
2019-04-07T12:48:11.375Z,39.70
2019-04-07T12:50:43.657Z,39.24
2019-04-07T12:53:36.286Z,38.97
2019-04-07T12:56:09.591Z,37.81
2019-04-07T12:58:59.128Z,38.05
2019-04-07T13:01:48.525Z,38.42
2019-04-07T13:04:38.687Z,38.69
2019-04-07T13:07:27.219Z,39.06
2019-04-07T13:10:01.893Z,39.39
2019-04-07T13:12:34.312Z,39.07
2019-04-07T13:15:26.865Z,39.19
2019-04-07T13:18:03.642Z,39.02
2019-04-07T13:20:34.680Z,38.92
2019-04-07T13:23:09.531Z,38.66
2019-04-07T13:25:42.834Z,38.79
2019-04-07T13:28:16.417Z,38.99
2019-04-07T13:31:06.598Z,38.73
2019-04-07T13:33:59.751Z,38.49
2019-04-07T13:36:35.820Z,38.40
2019-04-07T13:39:10.538Z,37.45
2019-04-07T13:41:55.301Z,37.80
2019-04-07T13:44:45.923Z,38.48
2019-04-07T13:47:24.235Z,37.74
2019-04-07T13:50:06.309Z,36.68
2019-04-07T13:52:54.147Z,38.00
2019-04-07T13:55:24.866Z,37.26
2019-04-07T13:58:13.949Z,37.42
2019-04-07T14:00:52.968Z,37.89
2019-04-07T14:03:31.398Z,37.26
2019-04-07T14:06:14.686Z,37.27
2019-04-07T14:08:52.359Z,37.70
2019-04-07T14:11:56.558Z,37.03
2019-04-07T14:14:26.708Z,37.60
2019-04-07T14:17:15.259Z,37.50
2019-04-07T14:19:54.074Z,37.44
2019-04-07T14:22:33.171Z,38.48
2019-04-07T14:25:22.027Z,36.02
2019-04-07T14:28:00.115Z,37.38
2019-04-07T14:30:41.311Z,36.50
2019-04-07T14:33:13.771Z,37.78
2019-04-07T14:35:48.913Z,36.36
2019-04-07T14:38:22.245Z,36.56
2019-04-07T14:40:54.919Z,37.04
2019-04-07T14:43:27.368Z,36.77
2019-04-07T14:46:01.099Z,36.90
2019-04-07T14:48:40.195Z,36.74
2019-04-07T14:51:16.293Z,36.50
2019-04-07T14:54:04.409Z,36.35
2019-04-07T14:56:38.599Z,36.55
2019-04-07T14:59:28.428Z,37.09
2019-04-07T15:02:01.772Z,37.63
2019-04-07T15:04:34.557Z,37.35
2019-04-07T15:07:12.912Z,37.38
2019-04-07T15:09:48.140Z,37.35
2019-04-07T15:12:30.266Z,37.09
2019-04-07T15:15:05.568Z,37.36
2019-04-07T15:17:35.807Z,37.66
2019-04-07T15:20:07.629Z,37.63
2019-04-07T15:22:38.980Z,37.46
2019-04-07T15:25:10.317Z,37.62
2019-04-07T15:27:41.406Z,37.96
2019-04-07T15:30:15.270Z,37.69
2019-04-07T15:32:44.806Z,37.69
2019-04-07T15:35:16.236Z,37.69
2019-04-07T15:37:47.689Z,35.78
2019-04-07T15:40:19.254Z,36.00
2019-04-07T15:42:51.037Z,36.81
2019-04-07T15:45:22.370Z,36.64
2019-04-07T15:47:54.021Z,36.87
2019-04-07T15:50:29.412Z,37.08
2019-04-07T15:53:01.558Z,36.81
2019-04-07T15:55:45.465Z,36.80
2019-04-07T15:58:05.249Z,37.28
2019-04-07T16:00:36.112Z,37.15
2019-04-07T16:03:07.391Z,37.11
2019-04-07T16:05:42.823Z,37.68
2019-04-07T16:08:11.678Z,37.78
2019-04-07T16:10:45.114Z,37.41
2019-04-07T16:13:15.742Z,36.97
2019-04-07T16:15:50.941Z,36.67
2019-04-07T16:18:20.042Z,36.86
2019-04-07T16:20:51.684Z,37.40
2019-04-07T16:23:22.237Z,37.19
2019-04-07T16:25:54.959Z,37.19
2019-04-07T16:28:28.529Z,36.95
2019-04-07T16:30:59.454Z,37.26
2019-04-07T16:33:33.988Z,37.16
2019-04-07T16:36:04.460Z,37.39
2019-04-07T16:38:36.866Z,37.53
2019-04-07T16:41:07.934Z,37.35
2019-04-07T16:43:45.722Z,37.42
2019-04-07T16:46:20.508Z,37.05
2019-04-07T16:48:51.226Z,37.41
2019-04-07T16:51:26.383Z,36.94
2019-04-07T16:53:54.336Z,37.00
2019-04-07T16:56:27.606Z,37.10
2019-04-07T16:58:59.426Z,36.62
2019-04-07T17:01:33.506Z,36.38
2019-04-07T17:04:04.677Z,36.35
2019-04-07T17:06:36.085Z,35.93
2019-04-07T17:09:11.068Z,36.07
2019-04-07T17:11:43.105Z,35.93
2019-04-07T17:14:14.192Z,35.72
2019-04-07T17:16:47.160Z,35.58
2019-04-07T17:19:17.122Z,35.78
2019-04-07T17:21:51.894Z,35.71
2019-04-07T17:24:25.072Z,35.71
2019-04-07T17:26:53.784Z,35.84
2019-04-07T17:29:24.761Z,35.77
2019-04-07T17:32:01.224Z,36.04
2019-04-07T17:34:30.492Z,36.16
2019-04-07T17:37:02.765Z,36.23
2019-04-07T17:39:39.128Z,36.63
2019-04-07T17:42:11.602Z,35.89
2019-04-07T17:45:02.058Z,36.32
2019-04-07T17:47:43.319Z,36.55
2019-04-07T17:50:32.159Z,36.48
2019-04-07T17:53:11.650Z,36.61
2019-04-07T17:55:50.600Z,36.40
2019-04-07T17:58:39.946Z,36.17
2019-04-07T18:01:30.060Z,36.46
2019-04-07T18:04:03.788Z,36.56
2019-04-07T18:06:36.606Z,36.79
2019-04-07T18:09:12.697Z,36.66
2019-04-07T18:12:06.797Z,36.71
2019-04-07T18:14:57.052Z,36.82
2019-04-07T18:17:46.005Z,36.91
2019-04-07T18:20:17.358Z,36.30
2019-04-07T18:22:51.884Z,36.70
2019-04-07T18:25:41.189Z,36.84
2019-04-07T18:28:23.838Z,36.43
2019-04-07T18:31:04.347Z,37.19
2019-04-07T18:33:38.349Z,37.26
2019-04-07T18:36:10.918Z,37.16
2019-04-07T18:38:47.089Z,37.22
2019-04-07T18:41:17.232Z,36.88
2019-04-07T18:43:57.987Z,36.81
2019-04-07T18:46:24.829Z,37.28
2019-04-07T18:49:01.141Z,36.94
2019-04-07T18:51:49.460Z,37.27
2019-04-07T18:54:26.903Z,37.14
2019-04-07T18:57:15.297Z,37.34
2019-04-07T18:59:57.829Z,37.40
2019-04-07T19:02:45.320Z,37.63
2019-04-07T19:05:16.769Z,37.93
2019-04-07T19:07:54.897Z,38.00
2019-04-07T19:10:28.010Z,38.13
2019-04-07T19:13:14.599Z,38.19
2019-04-07T19:15:47.492Z,38.05
2019-04-07T19:18:20.471Z,38.65
2019-04-07T19:21:01.047Z,38.58
2019-04-07T19:23:49.039Z,38.85
2019-04-07T19:26:38.944Z,38.97
2019-04-07T19:29:23.633Z,38.97
2019-04-07T19:32:13.309Z,39.03
2019-04-07T19:34:53.617Z,39.69
2019-04-07T19:37:26.250Z,39.36
2019-04-07T19:40:14.493Z,39.49
2019-04-07T19:42:53.121Z,39.21
2019-04-07T19:45:26.836Z,39.12
2019-04-07T19:47:59.416Z,39.61
2019-04-07T19:50:50.832Z,39.74
2019-04-07T19:53:28.678Z,39.90
2019-04-07T19:55:58.401Z,39.86
2019-04-07T19:58:37.262Z,39.46
2019-04-07T20:01:25.542Z,39.65
2019-04-07T20:03:56.055Z,39.90
2019-04-07T20:06:37.531Z,39.77
2019-04-07T20:09:12.265Z,39.99
2019-04-07T20:12:02.473Z,40.06
2019-04-07T20:14:45.058Z,40.73
2019-04-07T20:17:09.427Z,41.32
2019-04-07T20:19:49.366Z,41.75
2019-04-07T20:22:23.112Z,42.40
2019-04-07T20:25:15.988Z,42.72
2019-04-07T20:28:03.057Z,43.13
2019-04-07T20:30:46.964Z,43.23
2019-04-07T20:33:18.978Z,43.55
2019-04-07T20:35:53.866Z,44.03
2019-04-07T20:38:27.668Z,44.25
2019-04-07T20:41:17.141Z,44.47
2019-04-07T20:43:51.268Z,44.98
2019-04-07T20:46:36.027Z,45.47
2019-04-07T20:49:25.101Z,45.70
2019-04-07T20:52:13.332Z,45.92
2019-04-07T20:55:04.768Z,46.08
2019-04-07T20:57:39.089Z,46.39
2019-04-07T21:00:14.543Z,46.26
2019-04-07T21:03:15.095Z,46.38
2019-04-07T21:05:46.732Z,46.32
2019-04-07T21:08:24.070Z,46.97
2019-04-07T21:10:56.085Z,47.12
2019-04-07T21:13:34.598Z,47.03
2019-04-07T21:16:23.420Z,47.24
2019-04-07T21:19:11.310Z,47.55
2019-04-07T21:22:00.114Z,47.37
2019-04-07T21:24:35.613Z,47.42
2019-04-07T21:27:08.086Z,47.42
2019-04-07T21:29:56.741Z,47.78
2019-04-07T21:32:48.629Z,47.79
2019-04-07T21:35:38.349Z,47.82
2019-04-07T21:38:16.192Z,47.91
2019-04-07T21:40:51.357Z,48.27
2019-04-07T21:43:28.040Z,48.49
2019-04-07T21:46:13.218Z,48.79
2019-04-07T21:48:48.065Z,48.70
2019-04-07T21:51:33.236Z,48.67
2019-04-07T21:54:05.821Z,48.64
2019-04-07T21:56:45.199Z,48.58
2019-04-07T21:59:21.521Z,48.28
2019-04-07T22:02:00.031Z,48.75
2019-04-07T22:04:36.174Z,48.72
2019-04-07T22:07:09.091Z,48.68
2019-04-07T22:09:50.699Z,48.67
2019-04-07T22:12:26.772Z,48.91
2019-04-07T22:14:55.514Z,48.85
2019-04-07T22:17:26.034Z,49.21
2019-04-07T22:19:56.776Z,49.20
2019-04-07T22:22:27.736Z,49.53
2019-04-07T22:25:05.976Z,49.44
2019-04-07T22:27:37.167Z,49.53
2019-04-07T22:30:11.129Z,49.74
2019-04-07T22:32:42.721Z,49.72
2019-04-07T22:35:16.948Z,49.60
2019-04-07T22:37:52.682Z,49.74
2019-04-07T22:40:23.844Z,49.98
2019-04-07T22:42:54.594Z,49.98
2019-04-07T22:45:29.864Z,49.76
2019-04-07T22:47:59.265Z,50.22
2019-04-07T22:50:32.636Z,49.95
2019-04-07T22:53:03.763Z,50.09
2019-04-07T22:55:36.049Z,50.22
2019-04-07T22:58:07.513Z,50.35
2019-04-07T23:00:38.624Z,50.48
2019-04-07T23:03:09.976Z,50.76
2019-04-07T23:05:41.604Z,50.52
2019-04-07T23:08:12.591Z,50.81
2019-04-07T23:10:44.237Z,50.75
2019-04-07T23:13:15.493Z,50.28
2019-04-07T23:15:47.427Z,50.87
2019-04-07T23:18:18.501Z,50.98
2019-04-07T23:20:49.316Z,51.22
2019-04-07T23:23:20.122Z,51.16
2019-04-07T23:25:51.455Z,51.09
2019-04-07T23:28:22.942Z,51.22
2019-04-07T23:30:54.646Z,51.22
2019-04-07T23:33:25.594Z,51.37
2019-04-07T23:35:57.451Z,51.69
2019-04-07T23:38:28.923Z,51.66
2019-04-07T23:40:59.927Z,51.63
2019-04-07T23:43:30.845Z,51.52
2019-04-07T23:46:02.262Z,51.57
2019-04-07T23:48:33.434Z,51.74
2019-04-07T23:51:04.308Z,51.49
2019-04-07T23:53:54.662Z,51.69
2019-04-07T23:56:25.393Z,51.80
2019-04-07T23:58:56.292Z,51.97
